createdAt,value
2018-06-25T00:01:24.981Z,1.37
2018-06-25T00:04:00.565Z,1.40
2018-06-25T00:06:36.056Z,1.20
2018-06-25T00:09:11.948Z,1.43
2018-06-25T00:11:47.661Z,1.50
2018-06-25T00:14:23.534Z,1.27
2018-06-25T00:16:59.097Z,1.53
2018-06-25T00:19:34.566Z,1.33
2018-06-25T00:22:10.383Z,1.33
2018-06-25T00:24:46.031Z,1.60
2018-06-25T00:27:21.766Z,1.90
2018-06-25T00:29:57.643Z,1.80
2018-06-25T00:32:33.176Z,1.60
2018-06-25T00:35:08.811Z,1.90
2018-06-25T00:37:44.596Z,2.17
2018-06-25T00:40:20.611Z,1.80
2018-06-25T00:42:59.094Z,1.77
2018-06-25T00:45:34.544Z,1.97
2018-06-25T00:48:11.535Z,1.97
2018-06-25T00:50:46.998Z,1.90
2018-06-25T00:53:22.499Z,1.70
2018-06-25T00:55:57.800Z,1.57
2018-06-25T00:58:44.468Z,1.93
2018-06-25T01:01:20.184Z,1.80
2018-06-25T01:03:55.731Z,2.37
2018-06-25T01:06:31.208Z,1.83
2018-06-25T01:09:09.432Z,1.80
2018-06-25T01:11:45.074Z,2.07
2018-06-25T01:14:20.664Z,1.83
2018-06-25T01:16:56.292Z,1.90
2018-06-25T01:19:31.809Z,2.00
2018-06-25T01:22:08.366Z,1.90
2018-06-25T01:24:43.842Z,1.87
2018-06-25T01:27:19.094Z,2.00
2018-06-25T01:29:54.864Z,1.63
2018-06-25T01:32:30.570Z,1.80
2018-06-25T01:35:06.226Z,1.93
2018-06-25T01:37:41.890Z,1.90
2018-06-25T01:40:17.423Z,1.90
2018-06-25T01:42:53.160Z,1.70
2018-06-25T01:45:29.000Z,1.90
2018-06-25T01:48:04.686Z,2.20
2018-06-25T01:50:40.366Z,1.93
2018-06-25T01:53:15.927Z,2.37
2018-06-25T01:55:51.530Z,2.33
2018-06-25T01:58:27.088Z,2.10
2018-06-25T02:01:02.754Z,2.20
2018-06-25T02:03:38.408Z,1.93
2018-06-25T02:06:14.164Z,2.13
2018-06-25T02:08:49.688Z,2.10
2018-06-25T02:11:25.276Z,1.90
2018-06-25T02:14:01.056Z,2.40
2018-06-25T02:16:37.000Z,2.20
2018-06-25T02:19:12.700Z,2.10
2018-06-25T02:21:48.034Z,2.40
2018-06-25T02:24:23.722Z,3.20
2018-06-25T02:26:59.217Z,2.50
2018-06-25T02:29:34.615Z,2.23
2018-06-25T02:32:10.264Z,2.30
2018-06-25T02:34:46.201Z,2.30
2018-06-25T02:37:21.674Z,2.00
2018-06-25T02:39:57.230Z,2.03
2018-06-25T02:42:32.916Z,2.10
2018-06-25T02:45:11.210Z,1.87
2018-06-25T02:47:46.750Z,2.00
2018-06-25T02:50:22.304Z,2.30
2018-06-25T02:52:58.280Z,2.10
2018-06-25T02:55:34.137Z,2.23
2018-06-25T02:58:09.970Z,2.13
2018-06-25T03:00:45.697Z,2.10
2018-06-25T03:03:21.268Z,2.40
2018-06-25T03:05:56.896Z,2.40
2018-06-25T03:08:32.492Z,2.40
2018-06-25T03:11:08.772Z,2.60
2018-06-25T03:13:44.166Z,2.37
2018-06-25T03:16:20.418Z,2.53
2018-06-25T03:18:56.038Z,2.57
2018-06-25T03:21:31.668Z,2.43
2018-06-25T03:24:07.199Z,2.70
2018-06-25T03:26:42.792Z,2.30
2018-06-25T03:29:18.429Z,2.00
2018-06-25T03:31:54.226Z,2.43
2018-06-25T03:34:30.229Z,2.60
2018-06-25T03:37:06.225Z,2.40
2018-06-25T03:39:41.985Z,2.80
2018-06-25T03:42:17.996Z,3.10
2018-06-25T03:44:53.487Z,2.33
2018-06-25T03:47:29.160Z,2.40
2018-06-25T03:50:05.030Z,2.63
2018-06-25T03:52:40.661Z,2.97
2018-06-25T03:55:16.197Z,2.40
2018-06-25T03:57:52.469Z,2.20
2018-06-25T04:00:27.871Z,2.43
2018-06-25T04:03:03.585Z,2.60
2018-06-25T04:05:39.162Z,2.60
2018-06-25T04:08:15.189Z,2.60
2018-06-25T04:10:50.719Z,2.80
2018-06-25T04:13:25.983Z,2.80
2018-06-25T04:16:01.476Z,2.83
2018-06-25T04:18:36.957Z,3.37
2018-06-25T04:21:12.649Z,3.00
2018-06-25T04:23:48.360Z,3.53
2018-06-25T04:26:24.217Z,3.30
2018-06-25T04:28:59.866Z,2.70
2018-06-25T04:31:35.504Z,3.00
2018-06-25T04:34:11.431Z,2.47
2018-06-25T04:36:47.471Z,2.77
2018-06-25T04:39:23.132Z,2.83
2018-06-25T04:41:58.803Z,2.87
2018-06-25T04:44:34.301Z,2.80
2018-06-25T04:47:10.149Z,2.80
2018-06-25T04:49:45.603Z,2.53
2018-06-25T04:52:21.014Z,2.37
2018-06-25T04:54:56.865Z,2.90
2018-06-25T04:57:32.869Z,2.53
2018-06-25T05:00:08.489Z,3.00
2018-06-25T05:02:44.176Z,2.90
2018-06-25T05:05:20.048Z,2.80
2018-06-25T05:07:55.789Z,2.80
2018-06-25T05:10:31.327Z,3.13
2018-06-25T05:13:08.046Z,2.87
2018-06-25T05:15:43.844Z,3.00
2018-06-25T05:18:20.138Z,2.73
2018-06-25T05:20:55.974Z,3.17
2018-06-25T05:23:31.760Z,3.07
2018-06-25T05:26:07.583Z,3.33
2018-06-25T05:28:43.460Z,2.90
2018-06-25T05:31:18.995Z,3.00
2018-06-25T05:33:55.302Z,3.10
2018-06-25T05:36:30.780Z,2.70
2018-06-25T05:39:09.832Z,2.33
2018-06-25T05:41:45.554Z,2.00
2018-06-25T05:44:21.950Z,2.27
2018-06-25T05:47:12.538Z,2.73
2018-06-25T05:49:48.568Z,2.70
2018-06-25T05:52:24.148Z,2.77
2018-06-25T05:54:59.715Z,2.50
2018-06-25T05:57:35.394Z,2.63
2018-06-25T06:00:10.995Z,2.60
2018-06-25T06:02:46.791Z,2.60
2018-06-25T06:05:22.314Z,2.47
2018-06-25T06:07:57.784Z,2.53
2018-06-25T06:10:33.092Z,2.53
2018-06-25T06:13:08.616Z,2.00
2018-06-25T06:15:44.220Z,2.47
2018-06-25T06:18:20.214Z,1.80
2018-06-25T06:20:55.916Z,1.50
2018-06-25T06:23:31.554Z,1.63
2018-06-25T06:26:07.084Z,1.97
2018-06-25T06:28:42.817Z,1.70
2018-06-25T06:31:18.458Z,1.90
2018-06-25T06:33:54.572Z,1.87
2018-06-25T06:36:30.191Z,1.80
2018-06-25T06:39:11.311Z,1.87
2018-06-25T06:41:47.092Z,1.83
2018-06-25T06:44:23.188Z,1.77
2018-06-25T06:46:59.302Z,1.80
2018-06-25T06:49:34.963Z,2.00
2018-06-25T06:52:10.713Z,1.50
2018-06-25T06:54:46.210Z,2.00
2018-06-25T06:57:22.297Z,1.60
2018-06-25T06:59:57.886Z,1.10
2018-06-25T07:02:45.823Z,1.27
2018-06-25T07:05:35.021Z,1.63
2018-06-25T07:08:23.468Z,1.70
2018-06-25T07:11:08.355Z,1.13
2018-06-25T07:13:43.891Z,0.87
2018-06-25T07:16:19.318Z,1.50
2018-06-25T07:18:54.916Z,0.70
2018-06-25T07:21:30.636Z,1.00
2018-06-25T07:24:06.517Z,0.90
2018-06-25T07:26:41.994Z,1.00
2018-06-25T07:29:17.420Z,1.00
2018-06-25T07:31:53.260Z,1.53
2018-06-25T07:34:28.908Z,1.30
2018-06-25T07:37:05.030Z,1.30
2018-06-25T07:39:40.674Z,1.00
2018-06-25T07:42:16.239Z,1.13
2018-06-25T07:44:51.828Z,1.10
2018-06-25T07:47:27.543Z,1.03
2018-06-25T07:50:03.298Z,1.40
2018-06-25T07:52:38.720Z,1.30
2018-06-25T07:55:14.240Z,1.00
2018-06-25T07:57:50.034Z,1.00
2018-06-25T08:00:25.430Z,1.80
2018-06-25T08:03:00.910Z,1.30
2018-06-25T08:05:36.331Z,1.80
2018-06-25T08:08:12.020Z,0.80
2018-06-25T08:10:47.566Z,0.70
2018-06-25T08:13:23.102Z,0.83
2018-06-25T08:15:58.643Z,2.97
2018-06-25T08:18:34.909Z,0.80
2018-06-25T08:21:10.351Z,1.00
2018-06-25T08:23:45.866Z,0.70
2018-06-25T08:26:21.394Z,0.80
2018-06-25T08:28:56.832Z,2.00
2018-06-25T08:31:32.170Z,1.20
2018-06-25T08:34:08.090Z,2.13
2018-06-25T08:36:43.601Z,0.70
2018-06-25T08:39:19.161Z,1.00
2018-06-25T08:41:54.845Z,0.80
2018-06-25T08:44:30.365Z,1.43
2018-06-25T08:47:06.087Z,1.40
2018-06-25T08:49:41.411Z,1.43
2018-06-25T08:52:16.713Z,1.80
2018-06-25T08:54:52.091Z,2.27
2018-06-25T08:57:27.735Z,1.13
2018-06-25T09:00:04.455Z,0.90
2018-06-25T09:02:39.986Z,1.10
2018-06-25T09:05:15.436Z,2.10
2018-06-25T09:07:50.909Z,3.83
2018-06-25T09:10:26.356Z,1.50
2018-06-25T09:13:01.963Z,1.00
2018-06-25T09:15:37.443Z,0.70
2018-06-25T09:18:13.082Z,1.27
2018-06-25T09:20:48.737Z,1.00
2018-06-25T09:23:24.283Z,0.67
2018-06-25T09:25:59.601Z,0.60
2018-06-25T09:28:35.267Z,0.80
2018-06-25T09:31:10.693Z,1.07
2018-06-25T09:33:46.267Z,1.20
2018-06-25T09:36:21.681Z,0.70
2018-06-25T09:38:57.093Z,0.70
2018-06-25T09:41:32.476Z,3.17
2018-06-25T09:44:08.245Z,1.47
2018-06-25T09:46:43.637Z,1.20
2018-06-25T09:49:19.185Z,0.93
2018-06-25T09:51:54.657Z,1.00
2018-06-25T09:54:30.365Z,1.30
2018-06-25T09:57:06.615Z,0.80
2018-06-25T09:59:41.935Z,1.33
2018-06-25T10:02:17.584Z,0.70
2018-06-25T10:04:53.162Z,0.80
2018-06-25T10:07:28.649Z,0.60
2018-06-25T10:10:04.198Z,0.40
2018-06-25T10:12:39.687Z,0.60
2018-06-25T10:15:15.155Z,1.02
2018-06-25T10:17:51.076Z,1.10
2018-06-25T10:20:26.859Z,0.50
2018-06-25T10:23:02.419Z,1.12
2018-06-25T10:25:38.394Z,1.10
2018-06-25T10:28:13.938Z,0.60
2018-06-25T10:30:49.252Z,0.63
2018-06-25T10:33:24.897Z,0.50
2018-06-25T10:36:01.595Z,0.57
2018-06-25T10:38:37.017Z,0.90
2018-06-25T10:41:56.509Z,0.97
2018-06-25T10:44:31.953Z,0.60
2018-06-25T10:47:07.547Z,0.30
2018-06-25T10:49:43.420Z,0.40
2018-06-25T10:52:19.009Z,0.63
2018-06-25T10:54:55.141Z,0.70
2018-06-25T10:57:30.608Z,0.40
2018-06-25T11:00:06.971Z,0.60
2018-06-25T11:02:42.273Z,0.67
2018-06-25T11:05:17.827Z,0.70
2018-06-25T11:07:53.535Z,0.70
2018-06-25T11:10:30.951Z,0.70
2018-06-25T11:13:09.276Z,0.67
2018-06-25T11:15:54.859Z,0.77
2018-06-25T11:18:30.674Z,0.83
2018-06-25T11:21:06.332Z,1.00
2018-06-25T11:23:41.925Z,0.80
2018-06-25T11:26:17.461Z,0.90
2018-06-25T11:28:52.954Z,0.53
2018-06-25T11:31:28.427Z,0.97
2018-06-25T11:34:04.361Z,1.17
2018-06-25T11:36:39.930Z,1.80
2018-06-25T11:39:15.594Z,1.03
2018-06-25T11:41:51.184Z,0.67
2018-06-25T11:44:26.771Z,0.50
2018-06-25T11:47:02.410Z,0.50
2018-06-25T11:49:38.042Z,0.50
2018-06-25T11:52:13.691Z,0.60
2018-06-25T11:54:49.190Z,0.70
2018-06-25T11:57:24.661Z,0.60
2018-06-25T12:00:01.035Z,0.53
2018-06-25T12:02:36.792Z,0.50
2018-06-25T12:05:12.391Z,0.40
2018-06-25T12:07:48.058Z,3.00
2018-06-25T12:10:23.748Z,0.80
2018-06-25T12:12:59.185Z,0.60
2018-06-25T12:15:34.629Z,0.70
2018-06-25T12:18:10.404Z,0.60
2018-06-25T12:20:46.076Z,2.07
2018-06-25T12:23:22.048Z,0.80
2018-06-25T12:25:57.947Z,0.57
2018-06-25T12:28:33.799Z,0.50
2018-06-25T12:31:09.718Z,0.60
2018-06-25T12:33:45.359Z,0.80
2018-06-25T12:36:21.659Z,0.60
2018-06-25T12:38:57.412Z,0.40
2018-06-25T12:41:33.300Z,0.93
2018-06-25T12:44:09.264Z,1.90
2018-06-25T12:46:44.877Z,1.50
2018-06-25T12:49:20.606Z,1.03
2018-06-25T12:51:56.330Z,0.80
2018-06-25T12:54:31.737Z,2.00
2018-06-25T12:57:08.041Z,0.57
2018-06-25T12:59:46.769Z,0.60
2018-06-25T13:02:22.018Z,0.70
2018-06-25T13:04:57.821Z,0.70
2018-06-25T13:07:33.406Z,0.93
2018-06-25T13:10:10.185Z,1.98
2018-06-25T13:12:45.689Z,1.22
2018-06-25T13:15:21.121Z,0.88
2018-06-25T13:17:56.888Z,0.70
2018-06-25T13:20:33.345Z,1.07
2018-06-25T13:23:09.074Z,1.30
2018-06-25T13:25:44.932Z,0.83
2018-06-25T13:28:20.262Z,1.10
2018-06-25T13:30:56.016Z,1.13
2018-06-25T13:33:31.366Z,0.80
2018-06-25T13:36:06.999Z,0.73
2018-06-25T13:38:42.544Z,0.60
2018-06-25T13:41:18.036Z,0.80
2018-06-25T13:43:53.298Z,0.87
2018-06-25T13:46:28.796Z,0.70
2018-06-25T13:49:04.208Z,0.50
2018-06-25T13:51:39.768Z,0.90
2018-06-25T13:54:15.596Z,0.90
2018-06-25T13:56:51.194Z,0.70
2018-06-25T13:59:26.754Z,0.70
2018-06-25T14:02:02.360Z,0.73
2018-06-25T14:04:38.174Z,0.80
2018-06-25T14:07:13.822Z,1.00
2018-06-25T14:09:50.928Z,0.70
2018-06-25T14:12:26.432Z,0.80
2018-06-25T14:15:02.159Z,0.53
2018-06-25T14:17:37.674Z,0.90
2018-06-25T14:20:13.320Z,0.83
2018-06-25T14:22:49.037Z,0.60
2018-06-25T14:25:24.644Z,1.00
2018-06-25T14:28:05.603Z,1.00
2018-06-25T14:30:46.109Z,1.00
2018-06-25T14:33:26.750Z,0.97
2018-06-25T14:36:02.304Z,0.80
2018-06-25T14:38:37.693Z,0.90
2018-06-25T14:41:13.097Z,0.90
2018-06-25T14:43:48.608Z,0.83
2018-06-25T14:46:24.150Z,0.60
2018-06-25T14:48:59.718Z,1.13
2018-06-25T14:51:34.988Z,1.40
2018-06-25T14:54:12.240Z,1.23
2018-06-25T14:56:47.587Z,1.30
2018-06-25T14:59:23.067Z,1.37
2018-06-25T15:01:59.057Z,1.23
2018-06-25T15:04:34.608Z,1.07
2018-06-25T15:07:09.870Z,0.80
2018-06-25T15:09:45.427Z,1.00
2018-06-25T15:12:21.016Z,1.00
2018-06-25T15:14:56.386Z,1.80
2018-06-25T15:17:32.004Z,1.20
2018-06-25T15:20:07.686Z,1.70
2018-06-25T15:22:43.046Z,1.73
2018-06-25T15:25:18.554Z,1.60
2018-06-25T15:27:53.876Z,1.30
2018-06-25T15:30:29.446Z,4.97
2018-06-25T15:33:06.050Z,1.27
2018-06-25T15:35:41.603Z,1.20
2018-06-25T15:38:44.601Z,1.10
2018-06-25T15:41:20.289Z,1.27
2018-06-25T15:44:11.653Z,1.00
2018-06-25T15:46:47.081Z,1.27
2018-06-25T15:49:22.690Z,0.93
2018-06-25T15:51:58.257Z,1.83
2018-06-25T15:54:33.769Z,1.77
2018-06-25T15:57:09.181Z,1.00
2018-06-25T15:59:45.811Z,1.40
2018-06-25T16:02:21.389Z,1.60
2018-06-25T16:04:56.836Z,1.40
2018-06-25T16:07:32.883Z,2.13
2018-06-25T16:10:08.407Z,1.23
2018-06-25T16:12:43.991Z,1.87
2018-06-25T16:15:19.510Z,1.20
2018-06-25T16:18:06.628Z,1.67
2018-06-25T16:20:42.253Z,1.93
2018-06-25T16:23:18.215Z,1.50
2018-06-25T16:25:53.897Z,1.37
2018-06-25T16:28:30.252Z,1.50
2018-06-25T16:31:05.875Z,1.50
2018-06-25T16:33:41.852Z,1.27
2018-06-25T16:36:17.334Z,1.20
2018-06-25T16:38:52.851Z,1.10
2018-06-25T16:41:28.511Z,1.80
2018-06-25T16:44:04.261Z,1.53
2018-06-25T16:46:40.825Z,1.37
2018-06-25T16:49:16.528Z,1.50
2018-06-25T16:51:53.348Z,1.70
2018-06-25T16:54:29.050Z,1.30
2018-06-25T16:57:05.132Z,1.53
2018-06-25T16:59:41.968Z,1.40
2018-06-25T17:02:17.617Z,1.00
2018-06-25T17:04:53.342Z,1.30
2018-06-25T17:07:29.093Z,1.80
2018-06-25T17:10:05.686Z,1.50
2018-06-25T17:12:41.365Z,2.00
2018-06-25T17:15:17.826Z,1.90
2018-06-25T17:17:53.506Z,1.73
2018-06-25T17:20:28.964Z,1.83
2018-06-25T17:23:06.403Z,1.30
2018-06-25T17:25:42.691Z,1.17
2018-06-25T17:28:18.565Z,1.40
2018-06-25T17:30:56.045Z,1.67
2018-06-25T17:33:32.479Z,1.20
2018-06-25T17:36:08.380Z,1.77
2018-06-25T17:38:44.953Z,2.10
2018-06-25T17:41:21.176Z,1.30
2018-06-25T17:43:58.095Z,1.20
2018-06-25T17:46:34.188Z,1.40
2018-06-25T17:49:09.796Z,2.10
2018-06-25T17:51:46.166Z,1.50
2018-06-25T17:54:23.229Z,1.30
2018-06-25T17:56:58.937Z,1.57
2018-06-25T17:59:35.420Z,1.63
2018-06-25T18:02:12.578Z,1.80
2018-06-25T18:04:48.649Z,2.10
2018-06-25T18:07:24.428Z,1.67
2018-06-25T18:10:02.264Z,1.43
2018-06-25T18:12:38.450Z,1.27
2018-06-25T18:15:14.302Z,1.50
2018-06-25T18:17:50.734Z,1.60
2018-06-25T18:20:26.377Z,1.30
2018-06-25T18:23:02.834Z,1.60
2018-06-25T18:25:40.511Z,1.33
2018-06-25T18:28:17.496Z,1.53
2018-06-25T18:30:53.544Z,1.57
2018-06-25T18:33:30.420Z,1.67
2018-06-25T18:36:06.828Z,2.03
2018-06-25T18:38:43.227Z,1.60
2018-06-25T18:41:18.893Z,1.87
2018-06-25T18:43:55.555Z,1.97
2018-06-25T18:46:31.320Z,1.97
2018-06-25T18:49:08.638Z,1.73
2018-06-25T18:51:44.331Z,1.73
2018-06-25T18:54:21.170Z,1.97
2018-06-25T18:56:57.778Z,2.23
2018-06-25T18:59:33.913Z,2.03
2018-06-25T19:02:09.358Z,2.00
2018-06-25T19:04:45.394Z,1.80
2018-06-25T19:07:22.873Z,2.00
2018-06-25T19:09:58.938Z,1.90
2018-06-25T19:12:35.720Z,2.10
2018-06-25T19:15:11.985Z,3.93
2018-06-25T19:17:49.826Z,5.60
2018-06-25T19:20:29.486Z,15.37
2018-06-25T19:23:04.960Z,2.47
2018-06-25T19:25:42.711Z,2.40
2018-06-25T19:28:18.380Z,2.17
2018-06-25T19:30:55.216Z,2.63
2018-06-25T19:33:32.080Z,2.70
2018-06-25T19:36:09.610Z,2.50
2018-06-25T19:38:45.728Z,2.80
2018-06-25T19:41:21.644Z,2.57
2018-06-25T19:43:57.731Z,2.47
2018-06-25T19:46:34.406Z,2.90
2018-06-25T19:49:10.812Z,2.10
2018-06-25T19:51:49.485Z,2.20
2018-06-25T19:54:25.774Z,2.27
2018-06-25T19:57:02.479Z,2.33
2018-06-25T19:59:39.892Z,8.07
2018-06-25T20:02:15.939Z,4.57
2018-06-25T20:04:52.922Z,3.63
2018-06-25T20:07:29.805Z,2.27
2018-06-25T20:10:07.367Z,2.53
2018-06-25T20:12:43.606Z,3.10
2018-06-25T20:15:19.793Z,2.33
2018-06-25T20:17:57.206Z,2.27
2018-06-25T20:20:32.818Z,2.20
2018-06-25T20:23:09.109Z,2.13
2018-06-25T20:25:44.792Z,2.77
2018-06-25T20:28:21.060Z,2.73
2018-06-25T20:30:57.044Z,2.63
2018-06-25T20:33:33.683Z,2.97
2018-06-25T20:36:09.928Z,2.10
2018-06-25T20:38:45.626Z,2.60
2018-06-25T20:41:21.815Z,2.40
2018-06-25T20:43:58.627Z,3.00
2018-06-25T20:46:34.750Z,2.43
2018-06-25T20:49:10.500Z,2.80
2018-06-25T20:51:46.683Z,2.80
2018-06-25T20:54:23.068Z,3.63
2018-06-25T20:57:04.957Z,2.80
2018-06-25T20:59:40.527Z,2.30
2018-06-25T21:02:17.601Z,2.47
2018-06-25T21:04:54.088Z,2.23
2018-06-25T21:07:30.512Z,2.60
2018-06-25T21:10:07.093Z,3.00
2018-06-25T21:12:44.384Z,2.17
2018-06-25T21:15:20.323Z,1.97
2018-06-25T21:17:55.992Z,2.80
2018-06-25T21:20:31.695Z,2.50
2018-06-25T21:23:07.746Z,2.37
2018-06-25T21:25:43.360Z,2.30
2018-06-25T21:28:19.832Z,2.60
2018-06-25T21:30:55.726Z,2.63
2018-06-25T21:33:32.163Z,2.60
2018-06-25T21:36:08.312Z,2.80
2018-06-25T21:38:45.054Z,2.67
2018-06-25T21:41:21.778Z,2.43
2018-06-25T21:43:57.417Z,2.90
2018-06-25T21:46:33.238Z,3.07
2018-06-25T21:49:09.463Z,2.17
2018-06-25T21:51:45.353Z,2.60
2018-06-25T21:54:21.394Z,5.00
2018-06-25T21:56:58.056Z,2.90
2018-06-25T21:59:33.967Z,2.20
2018-06-25T22:02:10.177Z,2.60
2018-06-25T22:04:46.066Z,3.17
2018-06-25T22:07:21.782Z,3.93
2018-06-25T22:09:57.484Z,3.97
2018-06-25T22:12:32.920Z,4.83
2018-06-25T22:15:08.940Z,4.20
2018-06-25T22:17:46.110Z,3.47
2018-06-25T22:20:21.924Z,3.03
2018-06-25T22:23:03.549Z,2.50
2018-06-25T22:25:39.976Z,2.80
2018-06-25T22:28:16.488Z,2.43
2018-06-25T22:30:52.489Z,2.93
2018-06-25T22:33:28.467Z,3.43
2018-06-25T22:36:05.902Z,2.73
2018-06-25T22:38:42.614Z,3.40
2018-06-25T22:41:19.787Z,2.30
2018-06-25T22:44:04.802Z,3.10
2018-06-25T22:46:42.901Z,3.07
2018-06-25T22:49:18.931Z,2.13
2018-06-25T22:51:54.978Z,2.40
2018-06-25T22:54:30.630Z,2.43
2018-06-25T22:57:07.380Z,2.57
2018-06-25T22:59:42.956Z,2.47
2018-06-25T23:02:20.086Z,2.97
2018-06-25T23:04:57.094Z,3.13
2018-06-25T23:07:33.997Z,3.93
2018-06-25T23:10:10.060Z,6.13
2018-06-25T23:12:48.163Z,5.10
2018-06-25T23:15:23.818Z,4.27
2018-06-25T23:17:59.484Z,2.73
2018-06-25T23:20:34.962Z,3.03
2018-06-25T23:23:11.485Z,2.17
2018-06-25T23:25:48.226Z,3.10
2018-06-25T23:28:24.282Z,4.00
2018-06-25T23:31:00.351Z,5.07
2018-06-25T23:33:36.928Z,4.93
2018-06-25T23:36:13.030Z,4.10
2018-06-25T23:38:49.589Z,2.47
2018-06-25T23:41:25.233Z,2.80
2018-06-25T23:44:02.517Z,3.30
2018-06-25T23:46:38.639Z,3.77
2018-06-25T23:49:14.663Z,2.60
2018-06-25T23:51:50.481Z,1.90
2018-06-25T23:54:27.465Z,3.00
2018-06-25T23:57:03.219Z,2.90
2018-06-25T23:59:38.999Z,2.30
